createdAt,value
2019-02-17T00:01:07.914Z,72.20
2019-02-17T00:03:40.083Z,72.20
2019-02-17T00:06:10.323Z,71.00
2019-02-17T00:08:42.454Z,72.40
2019-02-17T00:11:12.684Z,72.50
2019-02-17T00:13:43.285Z,73.00
2019-02-17T00:16:13.543Z,73.70
2019-02-17T00:18:43.962Z,73.10
2019-02-17T00:21:14.270Z,73.00
2019-02-17T00:23:44.870Z,73.30
2019-02-17T00:26:15.182Z,73.50
2019-02-17T00:28:47.466Z,73.50
2019-02-17T00:31:18.377Z,73.20
2019-02-17T00:33:48.920Z,73.60
2019-02-17T00:36:19.070Z,73.40
2019-02-17T00:38:49.507Z,73.20
2019-02-17T00:41:19.757Z,72.60
2019-02-17T00:43:49.934Z,72.60
2019-02-17T00:46:20.143Z,73.00
2019-02-17T00:48:50.422Z,72.90
2019-02-17T00:51:20.676Z,72.50
2019-02-17T00:53:50.903Z,72.50
2019-02-17T00:56:21.250Z,72.20
2019-02-17T00:59:09.204Z,72.40
2019-02-17T01:01:30.889Z,72.10
2019-02-17T01:04:01.694Z,71.90
2019-02-17T01:06:31.956Z,72.10
2019-02-17T01:09:02.451Z,72.00
2019-02-17T01:11:33.664Z,71.90
2019-02-17T01:14:04.252Z,71.70
2019-02-17T01:16:34.422Z,71.60
2019-02-17T01:19:06.536Z,71.90
2019-02-17T01:21:43.856Z,71.60
2019-02-17T01:24:15.483Z,71.30
2019-02-17T01:26:45.635Z,71.20
2019-02-17T01:29:20.805Z,71.30
2019-02-17T01:31:50.053Z,71.40
2019-02-17T01:34:20.634Z,71.70
2019-02-17T01:36:50.796Z,71.80
2019-02-17T01:39:21.307Z,71.90
2019-02-17T01:41:51.457Z,72.20
2019-02-17T01:44:22.090Z,72.60
2019-02-17T01:46:52.354Z,72.20
2019-02-17T01:49:23.155Z,72.60
2019-02-17T01:51:54.369Z,72.50
2019-02-17T01:54:25.861Z,73.30
2019-02-17T01:56:56.691Z,72.70
2019-02-17T01:59:30.838Z,72.70
2019-02-17T02:02:02.737Z,72.90
2019-02-17T02:04:34.074Z,74.20
2019-02-17T02:07:06.045Z,72.30
2019-02-17T02:09:36.394Z,73.20
2019-02-17T02:12:06.792Z,73.90
2019-02-17T02:14:37.440Z,73.30
2019-02-17T02:17:07.783Z,73.40
2019-02-17T02:19:40.464Z,73.50
2019-02-17T02:22:11.176Z,73.20
2019-02-17T02:24:41.483Z,73.20
2019-02-17T02:27:11.718Z,73.00
2019-02-17T02:29:42.205Z,73.00
2019-02-17T02:32:14.742Z,72.70
2019-02-17T02:34:45.390Z,73.30
2019-02-17T02:37:15.602Z,74.00
2019-02-17T02:39:46.765Z,74.00
2019-02-17T02:42:17.151Z,72.80
2019-02-17T02:44:48.664Z,72.70
2019-02-17T02:47:20.073Z,73.70
2019-02-17T02:49:50.989Z,72.90
2019-02-17T02:52:21.162Z,73.40
2019-02-17T02:54:51.845Z,73.60
2019-02-17T02:57:22.123Z,74.20
2019-02-17T02:59:52.915Z,73.90
2019-02-17T03:02:23.182Z,74.00
2019-02-17T03:04:54.636Z,74.60
2019-02-17T03:07:26.093Z,74.80
2019-02-17T03:09:56.518Z,75.00
2019-02-17T03:12:26.707Z,75.30
2019-02-17T03:14:57.275Z,75.50
2019-02-17T03:17:28.510Z,75.80
2019-02-17T03:19:59.165Z,75.80
2019-02-17T03:22:32.127Z,75.20
2019-02-17T03:25:02.859Z,75.50
2019-02-17T03:27:32.984Z,76.00
2019-02-17T03:30:05.543Z,76.20
2019-02-17T03:32:35.732Z,76.30
2019-02-17T03:35:08.648Z,76.20
2019-02-17T03:37:39.271Z,76.40
2019-02-17T03:40:09.639Z,75.80
2019-02-17T03:42:40.143Z,75.60
2019-02-17T03:45:10.659Z,75.50
2019-02-17T03:47:41.046Z,75.50
2019-02-17T03:50:11.222Z,75.70
2019-02-17T03:52:42.449Z,75.70
2019-02-17T03:55:12.999Z,75.60
2019-02-17T03:57:43.221Z,75.20
2019-02-17T04:00:16.950Z,75.00
2019-02-17T04:02:45.986Z,74.90
2019-02-17T04:05:17.459Z,74.50
2019-02-17T04:07:47.888Z,75.20
2019-02-17T04:10:18.145Z,75.50
2019-02-17T04:12:48.710Z,75.20
2019-02-17T04:15:18.973Z,74.60
2019-02-17T04:17:49.491Z,74.60
2019-02-17T04:20:21.337Z,75.50
2019-02-17T04:22:51.804Z,75.70
2019-02-17T04:25:25.178Z,75.70
2019-02-17T04:27:55.750Z,75.70
2019-02-17T04:30:29.637Z,75.70
2019-02-17T04:32:58.150Z,75.70
2019-02-17T04:35:29.466Z,75.80
2019-02-17T04:37:59.586Z,75.80
2019-02-17T04:40:29.838Z,75.80
2019-02-17T04:43:00.451Z,75.80
2019-02-17T04:45:30.858Z,76.40
2019-02-17T04:48:01.475Z,76.20
2019-02-17T04:50:31.627Z,76.10
2019-02-17T04:53:03.188Z,76.20
2019-02-17T04:55:33.445Z,75.80
2019-02-17T04:58:03.951Z,76.10
2019-02-17T05:00:40.183Z,76.30
2019-02-17T05:03:06.175Z,76.00
2019-02-17T05:05:37.537Z,75.70
2019-02-17T05:08:07.901Z,75.50
2019-02-17T05:10:38.192Z,75.60
2019-02-17T05:13:12.150Z,75.50
2019-02-17T05:18:13.344Z,75.70
2019-02-17T05:20:43.931Z,76.00
2019-02-17T05:23:16.678Z,76.20
2019-02-17T05:25:47.350Z,76.90
2019-02-17T05:28:17.735Z,76.80
2019-02-17T05:30:52.751Z,76.90
2019-02-17T05:33:22.808Z,77.20
2019-02-17T05:35:53.454Z,77.40
2019-02-17T05:38:27.657Z,77.70
2019-02-17T05:40:58.153Z,78.80
2019-02-17T05:43:28.387Z,77.80
2019-02-17T05:45:58.813Z,78.30
2019-02-17T05:52:16.876Z,78.20
2019-02-17T05:54:47.553Z,78.60
2019-02-17T05:57:19.006Z,78.80
2019-02-17T05:59:49.246Z,78.70
2019-02-17T06:02:19.570Z,78.70
2019-02-17T06:04:49.878Z,78.70
2019-02-17T06:07:20.342Z,78.30
2019-02-17T06:09:51.543Z,78.00
2019-02-17T06:12:23.970Z,78.50
2019-02-17T06:14:54.282Z,78.50
2019-02-17T06:17:24.527Z,78.70
2019-02-17T06:19:54.760Z,78.70
2019-02-17T06:22:25.084Z,78.60
2019-02-17T06:24:55.398Z,78.70
2019-02-17T06:27:26.177Z,78.60
2019-02-17T06:29:56.721Z,78.70
2019-02-17T06:32:26.902Z,79.00
2019-02-17T06:34:57.427Z,78.80
2019-02-17T06:37:28.258Z,78.60
2019-02-17T06:39:58.608Z,78.60
2019-02-17T06:42:28.965Z,78.80
2019-02-17T06:47:32.469Z,78.30
2019-02-17T06:50:03.115Z,79.30
2019-02-17T06:52:33.402Z,79.30
2019-02-17T06:55:25.711Z,79.00
2019-02-17T06:57:56.146Z,79.00
2019-02-17T07:00:36.731Z,78.40
2019-02-17T07:03:07.294Z,78.70
2019-02-17T07:05:59.608Z,79.00
2019-02-17T07:08:32.220Z,78.60
2019-02-17T07:11:02.794Z,78.70
2019-02-17T07:13:33.151Z,78.20
2019-02-17T07:16:03.465Z,78.00
2019-02-17T07:18:34.071Z,77.30
2019-02-17T07:21:04.393Z,77.00
2019-02-17T07:23:34.996Z,76.30
2019-02-17T07:26:07.267Z,76.00
2019-02-17T07:28:38.028Z,76.40
2019-02-17T07:31:08.254Z,75.90
2019-02-17T07:33:39.370Z,76.70
2019-02-17T07:36:09.635Z,76.10
2019-02-17T07:38:40.336Z,76.10
2019-02-17T07:41:10.672Z,75.80
2019-02-17T07:43:41.617Z,75.40
2019-02-17T07:46:11.865Z,75.00
2019-02-17T07:51:44.783Z,73.90
2019-02-17T07:54:17.483Z,74.00
2019-02-17T07:57:12.736Z,73.40
2019-02-17T07:59:47.571Z,72.70
2019-02-17T08:02:18.309Z,71.80
2019-02-17T08:04:48.920Z,72.10
2019-02-17T08:07:19.168Z,71.60
2019-02-17T08:09:49.704Z,71.60
2019-02-17T08:12:20.129Z,71.30
2019-02-17T08:14:50.454Z,71.60
2019-02-17T08:17:20.714Z,70.60
2019-02-17T08:19:51.306Z,70.70
2019-02-17T08:22:23.862Z,68.20
2019-02-17T08:24:56.205Z,65.00
2019-02-17T08:27:28.146Z,64.50
2019-02-17T08:29:58.442Z,62.20
2019-02-17T08:32:30.915Z,60.30
2019-02-17T08:35:00.978Z,60.70
2019-02-17T08:37:31.718Z,59.50
2019-02-17T08:40:01.995Z,59.60
2019-02-17T08:42:34.457Z,59.70
2019-02-17T08:45:06.251Z,60.00
2019-02-17T08:47:36.937Z,60.50
2019-02-17T08:50:09.575Z,59.90
2019-02-17T08:52:40.536Z,59.20
2019-02-17T08:55:12.881Z,58.00
2019-02-17T08:57:43.555Z,56.80
2019-02-17T09:00:15.037Z,57.20
2019-02-17T09:02:47.554Z,57.30
2019-02-17T09:05:18.184Z,57.30
2019-02-17T09:07:48.715Z,56.10
2019-02-17T09:10:19.451Z,56.10
2019-02-17T09:12:49.678Z,55.80
2019-02-17T09:15:20.271Z,56.20
2019-02-17T09:17:50.556Z,55.90
2019-02-17T09:20:22.095Z,54.90
2019-02-17T09:22:55.059Z,53.60
2019-02-17T09:25:25.671Z,53.40
2019-02-17T09:27:57.261Z,53.30
2019-02-17T09:30:28.102Z,53.20
2019-02-17T09:32:58.359Z,53.10
2019-02-17T09:35:30.665Z,52.50
2019-02-17T09:38:03.473Z,52.40
2019-02-17T09:40:33.975Z,53.40
2019-02-17T09:43:04.327Z,52.30
2019-02-17T09:45:34.843Z,52.30
2019-02-17T09:48:05.055Z,51.70
2019-02-17T09:50:40.715Z,51.10
2019-02-17T09:53:12.259Z,50.60
2019-02-17T09:55:42.974Z,50.50
2019-02-17T09:58:13.226Z,49.80
2019-02-17T10:00:44.007Z,48.40
2019-02-17T10:03:14.287Z,48.30
2019-02-17T10:05:45.087Z,47.80
2019-02-17T10:08:19.796Z,47.50
2019-02-17T10:10:51.558Z,48.30
2019-02-17T10:13:21.940Z,47.20
2019-02-17T10:15:52.541Z,47.60
2019-02-17T10:18:22.973Z,47.30
2019-02-17T10:20:53.760Z,47.10
2019-02-17T10:23:27.693Z,46.30
2019-02-17T10:25:58.085Z,45.60
2019-02-17T10:28:41.610Z,45.40
2019-02-17T10:31:08.261Z,44.70
2019-02-17T10:33:38.663Z,44.30
2019-02-17T10:36:13.266Z,44.10
2019-02-17T10:38:43.660Z,44.20
2019-02-17T10:41:20.386Z,42.60
2019-02-17T10:43:51.267Z,43.00
2019-02-17T10:46:22.048Z,43.20
2019-02-17T10:48:52.427Z,43.30
2019-02-17T10:51:23.469Z,43.20
2019-02-17T10:53:54.648Z,42.90
2019-02-17T10:56:28.523Z,43.00
2019-02-17T10:59:01.123Z,43.40
2019-02-17T11:01:32.052Z,43.60
2019-02-17T11:04:07.379Z,43.00
2019-02-17T11:06:38.390Z,43.10
2019-02-17T11:09:25.210Z,43.50
2019-02-17T11:12:01.315Z,43.70
2019-02-17T11:14:31.979Z,43.50
2019-02-17T11:17:03.765Z,44.20
2019-02-17T11:19:35.923Z,44.50
2019-02-17T11:22:06.817Z,45.20
2019-02-17T11:24:39.558Z,44.60
2019-02-17T11:27:12.441Z,44.70
2019-02-17T11:29:43.299Z,44.70
2019-02-17T11:32:13.903Z,44.90
2019-02-17T11:34:44.327Z,44.40
2019-02-17T11:37:16.404Z,44.30
2019-02-17T11:39:49.122Z,44.20
2019-02-17T11:42:19.748Z,43.80
2019-02-17T11:44:51.607Z,43.80
2019-02-17T11:47:25.515Z,43.80
2019-02-17T11:49:55.863Z,43.60
2019-02-17T11:52:26.386Z,43.60
2019-02-17T11:54:56.814Z,43.00
2019-02-17T11:57:27.333Z,43.00
2019-02-17T11:59:57.525Z,42.40
2019-02-17T12:02:28.138Z,42.30
2019-02-17T12:04:58.675Z,42.10
2019-02-17T12:07:28.995Z,42.00
2019-02-17T12:10:01.158Z,41.80
2019-02-17T12:12:31.825Z,41.50
2019-02-17T12:15:02.074Z,41.40
2019-02-17T12:17:34.357Z,41.40
2019-02-17T12:20:22.407Z,41.50
2019-02-17T12:23:00.476Z,42.40
2019-02-17T12:25:39.386Z,41.50
2019-02-17T12:28:23.810Z,41.50
2019-02-17T12:30:56.833Z,41.10
2019-02-17T12:33:27.512Z,40.70
2019-02-17T12:35:57.702Z,40.50
2019-02-17T12:38:28.359Z,40.30
2019-02-17T12:41:00.284Z,40.40
2019-02-17T12:43:30.620Z,40.50
2019-02-17T12:46:00.891Z,40.10
2019-02-17T12:48:31.780Z,40.50
2019-02-17T12:51:02.000Z,40.00
2019-02-17T12:53:32.631Z,40.20
2019-02-17T12:56:03.425Z,39.80
2019-02-17T12:58:35.786Z,39.60
2019-02-17T13:01:06.312Z,40.10
2019-02-17T13:03:39.213Z,39.20
2019-02-17T13:06:09.571Z,39.40
2019-02-17T13:08:46.082Z,38.10
2019-02-17T13:11:17.493Z,37.90
2019-02-17T13:13:48.555Z,38.40
2019-02-17T13:16:18.853Z,38.60
2019-02-17T13:18:49.359Z,37.30
2019-02-17T13:21:19.779Z,37.10
2019-02-17T13:23:51.105Z,35.90
2019-02-17T13:26:23.588Z,35.80
2019-02-17T13:28:54.460Z,34.70
2019-02-17T13:31:26.340Z,34.40
2019-02-17T13:33:57.123Z,36.00
2019-02-17T13:36:28.189Z,33.60
2019-02-17T13:39:01.532Z,33.50
2019-02-17T13:41:33.811Z,33.90
2019-02-17T13:44:05.459Z,33.50
2019-02-17T13:46:37.237Z,33.90
2019-02-17T13:49:08.484Z,34.20
2019-02-17T13:51:43.168Z,34.20
2019-02-17T13:54:16.540Z,34.20
2019-02-17T13:56:48.825Z,35.00
2019-02-17T13:59:19.956Z,35.00
2019-02-17T14:01:50.467Z,36.50
2019-02-17T14:04:22.588Z,34.00
2019-02-17T14:06:55.877Z,35.40
2019-02-17T14:09:26.634Z,35.90
2019-02-17T14:11:57.061Z,34.50
2019-02-17T14:14:28.910Z,34.70
2019-02-17T14:17:00.495Z,34.40
2019-02-17T14:19:32.166Z,34.60
2019-02-17T14:22:05.063Z,35.20
2019-02-17T14:24:36.104Z,35.30
2019-02-17T14:27:06.496Z,35.10
2019-02-17T14:29:37.759Z,36.30
2019-02-17T14:32:11.353Z,36.70
2019-02-17T14:34:41.997Z,37.20
2019-02-17T14:37:13.897Z,37.50
2019-02-17T14:39:44.861Z,38.00
2019-02-17T14:42:16.028Z,38.40
2019-02-17T14:44:46.571Z,39.00
2019-02-17T14:47:18.686Z,39.80
2019-02-17T14:49:50.231Z,40.00
2019-02-17T14:52:21.752Z,40.10
2019-02-17T14:54:54.790Z,39.90
2019-02-17T14:57:25.244Z,39.90
2019-02-17T14:59:58.426Z,40.00
2019-02-17T15:02:31.925Z,40.00
2019-02-17T15:05:03.643Z,39.70
2019-02-17T15:07:34.002Z,39.40
2019-02-17T15:10:04.809Z,38.80
2019-02-17T15:12:36.374Z,38.00
2019-02-17T15:15:07.775Z,37.60
2019-02-17T15:17:38.639Z,37.20
2019-02-17T15:20:12.181Z,36.80
2019-02-17T15:22:43.040Z,36.30
2019-02-17T15:25:13.429Z,35.50
2019-02-17T15:27:45.504Z,35.80
2019-02-17T15:30:17.797Z,35.60
2019-02-17T15:33:04.022Z,35.70
2019-02-17T15:35:32.755Z,35.70
2019-02-17T15:38:04.746Z,35.70
2019-02-17T15:40:38.557Z,35.90
2019-02-17T15:43:10.497Z,36.10
2019-02-17T15:45:40.928Z,36.60
2019-02-17T15:48:15.002Z,36.60
2019-02-17T15:50:46.966Z,36.40
2019-02-17T15:53:19.084Z,35.90
2019-02-17T15:55:49.662Z,35.20
2019-02-17T15:58:20.190Z,34.70
2019-02-17T16:00:50.978Z,34.00
2019-02-17T16:03:25.331Z,33.40
2019-02-17T16:05:57.702Z,33.40
2019-02-17T16:08:29.797Z,33.50
2019-02-17T16:11:00.531Z,34.00
2019-02-17T16:13:33.947Z,33.00
2019-02-17T16:16:04.622Z,34.40
2019-02-17T16:18:34.903Z,34.50
2019-02-17T16:21:05.496Z,35.30
2019-02-17T16:23:36.304Z,36.30
2019-02-17T16:26:08.479Z,37.00
2019-02-17T16:28:41.898Z,36.70
2019-02-17T16:31:13.280Z,37.20
2019-02-17T16:33:43.825Z,37.90
2019-02-17T16:36:15.529Z,38.80
2019-02-17T16:38:46.426Z,38.90
2019-02-17T16:41:24.410Z,39.70
2019-02-17T16:43:56.681Z,40.80
2019-02-17T16:46:27.840Z,42.00
2019-02-17T16:48:58.884Z,41.60
2019-02-17T16:51:29.785Z,43.30
2019-02-17T16:54:01.198Z,43.30
2019-02-17T16:56:32.514Z,44.00
2019-02-17T16:59:03.636Z,44.40
2019-02-17T17:01:34.694Z,45.20
2019-02-17T17:04:05.447Z,45.60
2019-02-17T17:06:36.472Z,46.60
2019-02-17T17:09:09.773Z,46.40
2019-02-17T17:11:40.799Z,46.90
2019-02-17T17:14:11.270Z,47.40
2019-02-17T17:16:42.357Z,47.50
2019-02-17T17:19:12.831Z,47.20
2019-02-17T17:21:43.754Z,47.40
2019-02-17T17:24:14.356Z,47.30
2019-02-17T17:26:47.668Z,48.00
2019-02-17T17:29:18.228Z,48.90
2019-02-17T17:31:49.056Z,49.60
2019-02-17T17:34:19.856Z,49.00
2019-02-17T17:36:50.920Z,49.50
2019-02-17T17:39:21.323Z,50.20
2019-02-17T17:42:12.349Z,50.30
2019-02-17T17:44:43.017Z,50.90
2019-02-17T17:47:13.592Z,52.20
2019-02-17T17:49:44.139Z,52.90
2019-02-17T17:52:18.615Z,51.90
2019-02-17T17:54:50.140Z,53.30
2019-02-17T17:57:26.795Z,52.90
2019-02-17T17:59:57.222Z,53.00
2019-02-17T18:02:28.094Z,53.40
2019-02-17T18:05:08.462Z,53.70
2019-02-17T18:07:30.732Z,54.10
2019-02-17T18:10:01.643Z,53.70
2019-02-17T18:12:33.243Z,54.60
2019-02-17T18:17:35.555Z,54.90
2019-02-17T18:20:07.126Z,55.70
2019-02-17T18:22:38.366Z,56.10
2019-02-17T18:25:09.282Z,57.00
2019-02-17T18:27:40.525Z,56.50
2019-02-17T18:30:12.484Z,57.30
2019-02-17T18:32:43.040Z,57.30
2019-02-17T18:35:19.863Z,57.40
2019-02-17T18:37:46.135Z,57.70
2019-02-17T18:40:16.671Z,58.20
2019-02-17T18:42:48.734Z,58.70
2019-02-17T18:45:21.644Z,58.10
2019-02-17T18:47:53.170Z,58.60
2019-02-17T18:50:24.770Z,58.70
2019-02-17T18:52:55.469Z,59.50
2019-02-17T18:55:25.869Z,59.70
2019-02-17T18:57:57.068Z,60.60
2019-02-17T19:00:28.767Z,60.30
2019-02-17T19:03:02.216Z,60.40
2019-02-17T19:05:32.719Z,60.60
2019-02-17T19:08:05.470Z,61.20
2019-02-17T19:10:35.903Z,61.20
2019-02-17T19:13:11.200Z,61.10
2019-02-17T19:15:42.030Z,61.70
2019-02-17T19:18:12.958Z,61.90
2019-02-17T19:20:44.317Z,62.20
2019-02-17T19:23:16.354Z,63.00
2019-02-17T19:25:47.499Z,62.20
2019-02-17T19:28:18.653Z,62.40
2019-02-17T19:30:49.143Z,63.10
2019-02-17T19:33:21.037Z,62.80
2019-02-17T19:35:51.671Z,62.50
2019-02-17T19:38:23.030Z,63.40
2019-02-17T19:41:01.590Z,61.90
2019-02-17T19:43:32.638Z,63.80
2019-02-17T19:46:03.199Z,62.70
2019-02-17T19:48:33.738Z,63.60
2019-02-17T19:51:05.382Z,64.00
2019-02-17T19:53:37.521Z,63.80
2019-02-17T19:56:08.502Z,63.90
2019-02-17T19:58:40.210Z,64.20
2019-02-17T20:01:11.703Z,63.80
2019-02-17T20:03:54.528Z,63.80
2019-02-17T20:06:26.320Z,64.10
2019-02-17T20:08:56.868Z,64.60
2019-02-17T20:11:27.236Z,64.40
2019-02-17T20:13:57.703Z,64.70
2019-02-17T20:16:29.308Z,65.00
2019-02-17T20:19:00.449Z,65.20
2019-02-17T20:21:31.504Z,64.50
2019-02-17T20:24:21.318Z,66.90
2019-02-17T20:26:52.703Z,65.30
2019-02-17T20:29:26.370Z,64.90
2019-02-17T20:31:57.678Z,67.20
2019-02-17T20:34:28.641Z,65.40
2019-02-17T20:36:59.854Z,65.50
2019-02-17T20:39:31.876Z,66.50
2019-02-17T20:42:02.533Z,68.80
2019-02-17T20:44:33.076Z,65.80
2019-02-17T20:47:03.493Z,66.60
2019-02-17T20:49:33.988Z,66.60
2019-02-17T20:52:06.696Z,66.90
2019-02-17T20:54:37.199Z,69.20
2019-02-17T20:57:08.039Z,67.50
2019-02-17T20:59:39.233Z,68.10
2019-02-17T21:02:10.067Z,67.70
2019-02-17T21:04:42.362Z,67.30
2019-02-17T21:07:16.395Z,67.60
2019-02-17T21:09:48.382Z,66.70
2019-02-17T21:12:18.795Z,67.40
2019-02-17T21:14:51.374Z,68.20
2019-02-17T21:17:24.764Z,67.30
2019-02-17T21:20:00.424Z,67.30
2019-02-17T21:22:32.061Z,67.60
2019-02-17T21:25:02.593Z,67.00
2019-02-17T21:27:35.380Z,67.00
2019-02-17T21:33:54.917Z,67.20
2019-02-17T21:36:25.105Z,67.70
2019-02-17T21:38:58.743Z,66.70
2019-02-17T21:41:29.861Z,66.60
2019-02-17T21:44:00.444Z,66.80
2019-02-17T21:46:31.633Z,67.70
2019-02-17T21:49:02.538Z,67.60
2019-02-17T21:51:34.656Z,68.40
2019-02-17T21:54:06.774Z,67.60
2019-02-17T21:56:39.979Z,68.10
2019-02-17T21:59:13.961Z,67.80
2019-02-17T22:01:49.909Z,67.10
2019-02-17T22:06:58.581Z,67.10
2019-02-17T22:09:30.318Z,67.20
2019-02-17T22:12:02.408Z,67.40
2019-02-17T22:17:05.579Z,67.70
2019-02-17T22:19:36.062Z,67.90
2019-02-17T22:22:07.792Z,67.50
2019-02-17T22:24:38.727Z,67.90
2019-02-17T22:27:25.618Z,67.80
2019-02-17T22:29:57.968Z,67.80
2019-02-17T22:32:29.591Z,70.20
2019-02-17T22:35:00.222Z,68.20
2019-02-17T22:37:32.560Z,68.20
2019-02-17T22:40:05.424Z,68.20
2019-02-17T22:42:36.150Z,68.20
2019-02-17T22:45:07.210Z,68.40
2019-02-17T22:47:37.830Z,68.50
2019-02-17T22:50:09.573Z,68.40
2019-02-17T22:52:59.046Z,68.40
2019-02-17T22:55:32.807Z,68.40
2019-02-17T22:58:03.522Z,67.80
2019-02-17T23:00:56.561Z,68.10
2019-02-17T23:03:30.368Z,68.40
2019-02-17T23:06:02.239Z,68.70
2019-02-17T23:08:32.912Z,69.70
2019-02-17T23:11:03.287Z,69.30
2019-02-17T23:13:34.446Z,69.10
2019-02-17T23:16:04.963Z,68.80
2019-02-17T23:18:35.788Z,69.60
2019-02-17T23:21:06.118Z,69.60
2019-02-17T23:23:36.763Z,69.60
2019-02-17T23:26:07.155Z,69.90
2019-02-17T23:28:39.152Z,69.70
2019-02-17T23:31:09.873Z,70.50
2019-02-17T23:33:40.528Z,72.20
2019-02-17T23:36:11.890Z,70.30
2019-02-17T23:38:42.347Z,69.70
2019-02-17T23:41:12.879Z,69.60
2019-02-17T23:43:43.560Z,69.60
2019-02-17T23:46:13.982Z,70.00
2019-02-17T23:48:45.284Z,70.00
2019-02-17T23:51:16.083Z,70.20
2019-02-17T23:53:46.442Z,70.10
2019-02-17T23:56:17.237Z,70.40
2019-02-17T23:58:48.153Z,70.40
